Time;durP1;ratioP1;P1;durP2;ratioP2;P2;SDS_P1;SDS_P2;PMS_P1;PMS_P2;Temp;Humidity;BMP_temperature;BMP_pressure;BME280_temperature;BME280_humidity;BME280_pressure;Samples;Min_cycle;Max_cycle;Signal;HPM_P1;HPM_P2
2023/04/13 00:01:46;;;;;;;50.80;32.30;;;;;;;7.60;71.02;99044.95;103039;1258;108775;-71
2023/04/13 00:04:13;;;;;;;54.00;33.10;;;;;;;7.50;71.27;99040.11;103119;1256;97786;-72
2023/04/13 00:06:57;;;;;;;54.00;33.30;;;;;;;7.44;71.49;99040.52;103077;1257;112326;-71
2023/04/13 00:09:24;;;;;;;48.30;31.80;;;;;;;7.42;71.69;99040.25;103033;1257;138531;-72
2023/04/13 00:11:59;;;;;;;50.30;32.10;;;;;;;7.39;71.81;99035.20;103094;1257;97680;-72
2023/04/13 00:14:26;;;;;;;48.80;31.80;;;;;;;7.33;72.00;99031.09;102902;1257;138657;-72
2023/04/13 00:16:53;;;;;;;49.50;31.80;;;;;;;7.26;72.09;99032.21;103886;1255;96755;-72
2023/04/13 00:19:19;;;;;;;50.00;31.10;;;;;;;7.23;72.47;99034.40;103307;1257;111765;-72
2023/04/13 00:21:43;;;;;;;50.30;31.50;;;;;;;7.20;72.55;99032.27;102882;1260;138363;-72
2023/04/13 00:24:10;;;;;;;44.30;30.50;;;;;;;7.18;72.56;99031.66;103068;1256;97896;-71
2023/04/13 00:26:35;;;;;;;45.70;31.50;;;;;;;7.15;72.78;99029.34;102920;1260;138255;-72
2023/04/13 00:29:20;;;;;;;48.40;32.10;;;;;;;7.12;72.78;99033.80;103058;1257;97787;-72
2023/04/13 00:31:56;;;;;;;49.80;31.40;;;;;;;7.09;72.94;99029.77;102951;1257;138398;-72
2023/04/13 00:34:31;;;;;;;50.70;31.90;;;;;;;7.06;73.07;99030.23;102940;1256;108354;-72
2023/04/13 00:37:17;;;;;;;50.10;32.40;;;;;;;7.03;73.12;99032.08;103054;1260;97785;-70
2023/04/13 00:39:45;;;;;;;46.00;30.80;;;;;;;7.02;73.19;99033.48;102880;1261;138168;-71
2023/04/13 00:42:08;;;;;;;47.90;32.60;;;;;;;6.99;73.21;99036.84;102934;1257;96698;-72
2023/04/13 00:44:36;;;;;;;51.10;33.00;;;;;;;6.97;73.27;99040.03;102904;1260;138207;-72
2023/04/13 00:47:04;;;;;;;53.30;32.40;;;;;;;6.98;73.25;99037.95;103004;1256;108378;-72
2023/04/13 00:49:33;;;;;;;52.30;32.30;;;;;;;6.97;73.63;99033.80;103616;1255;98294;-72
2023/04/13 00:52:18;;;;;;;47.20;31.00;;;;;;;6.97;73.61;99032.45;103006;1259;108137;-73
2023/04/13 00:54:55;;;;;;;47.10;30.60;;;;;;;6.97;73.86;99026.06;103098;1260;97869;-73
2023/04/13 00:57:28;;;;;;;46.40;30.70;;;;;;;6.97;73.89;99026.91;102899;1257;138160;-73
2023/04/13 00:59:53;;;;;;;;;;;;;;;6.97;73.92;99025.17;102996;1258;107087;-73
2023/04/13 01:02:17;;;;;;;51.30;31.50;;;;;;;6.97;74.00;99029.67;102918;1256;124548;-72
2023/04/13 01:04:48;;;;;;;48.20;31.30;;;;;;;6.97;74.17;99027.60;103053;1256;107854;-72
2023/04/13 01:07:20;;;;;;;47.60;30.60;;;;;;;6.93;74.13;99026.86;103098;1257;97685;-71
2023/04/13 01:09:51;;;;;;;49.00;31.30;;;;;;;6.91;74.19;99025.94;102959;1256;138390;-71
2023/04/13 01:12:25;;;;;;;42.80;30.10;;;;;;;6.87;74.07;99023.98;103038;1257;108337;-72
2023/04/13 01:15:01;;;;;;;45.40;30.10;;;;;;;6.86;74.24;99020.96;102989;1256;138545;-72
2023/04/13 01:17:53;;;;;;;49.20;32.80;;;;;;;6.83;74.09;99017.25;103080;1256;107652;-73
2023/04/13 01:20:28;;;;;;;48.90;30.90;;;;;;;6.82;74.36;99016.08;102920;1256;138720;-72
2023/04/13 01:22:56;;;;;;;50.30;30.50;;;;;;;6.79;74.36;99013.92;102978;1260;111796;-72
2023/04/13 01:25:30;;;;;;;49.40;30.80;;;;;;;6.79;74.53;99011.01;103022;1256;107230;-71
2023/04/13 01:27:59;;;;;;;47.30;30.80;;;;;;;6.81;74.52;99005.06;104015;1255;139947;-72
2023/04/13 01:30:27;;;;;;;47.80;31.30;;;;;;;6.79;74.70;99006.65;103057;1260;107749;-72
2023/04/13 01:32:53;;;;;;;45.30;31.00;;;;;;;6.79;74.73;99008.23;103009;1256;138408;-72
2023/04/13 01:35:21;;;;;;;48.80;31.30;;;;;;;6.77;74.68;99012.45;102989;1260;111494;-72
2023/04/13 01:37:46;;;;;;;47.00;31.10;;;;;;;6.75;74.74;99011.84;102965;1257;107646;-73
2023/04/13 01:40:13;;;;;;;49.30;31.20;;;;;;;6.74;74.80;99012.73;102908;1256;138210;-72
2023/04/13 01:42:45;;;;;;;50.10;31.10;;;;;;;6.74;75.03;99007.91;103342;1257;108040;-73
2023/04/13 01:45:13;;;;;;;49.70;31.50;;;;;;;6.76;75.16;99007.84;103612;1258;138439;-73
2023/04/13 01:47:41;;;;;;;46.50;31.80;;;;;;;6.78;75.26;99006.73;103090;1257;111251;-73
2023/04/13 01:50:35;;;;;;;43.50;29.70;;;;;;;6.80;75.18;99008.17;102835;1257;138753;-73
2023/04/13 01:53:16;;;;;;;46.10;31.20;;;;;;;6.81;75.33;99002.27;102950;1261;97845;-73
2023/04/13 01:56:00;;;;;;;44.40;30.30;;;;;;;6.82;75.29;99002.77;102830;1257;138633;-72
2023/04/13 01:58:32;;;;;;;47.10;31.80;;;;;;;6.81;75.09;98998.48;103041;1256;97900;-73
2023/04/13 02:01:16;;;;;;;47.30;31.10;;;;;;;6.77;74.95;98999.67;103081;1260;111748;-73
2023/04/13 02:03:51;;;;;;;52.40;33.80;;;;;;;6.76;75.05;99002.63;102974;1259;138475;-73
2023/04/13 02:06:15;;;;;;;46.20;32.40;;;;;;;6.77;75.25;99001.40;103061;1256;97684;-73
2023/04/13 02:08:49;;;;;;;43.60;31.00;;;;;;;6.77;75.26;99002.23;102937;1256;138813;-74
2023/04/13 02:11:20;;;;;;;51.20;33.40;;;;;;;6.79;75.57;98996.47;103092;1255;97852;-73
2023/04/13 02:13:44;;;;;;;50.10;33.60;;;;;;;6.80;75.54;98994.20;103057;1257;112305;-73
2023/04/13 02:16:11;;;;;;;49.10;33.60;;;;;;;6.78;75.50;98987.34;102867;1260;141051;-73
2023/04/13 02:18:39;;;;;;;51.40;33.90;;;;;;;6.78;75.54;98987.70;102957;1257;97769;-73
2023/04/13 02:21:07;;;;;;;48.70;33.00;;;;;;;6.77;75.57;98988.43;102895;1258;138120;-73
2023/04/13 02:23:32;;;;;;;50.00;34.10;;;;;;;6.76;75.39;98990.38;102896;1261;97700;-73
2023/04/13 02:25:57;;;;;;;52.20;33.40;;;;;;;6.74;75.23;98987.16;102926;1257;110869;-73
2023/04/13 02:28:41;;;;;;;51.50;32.10;;;;;;;6.71;75.22;98988.83;103027;1256;107932;-73
2023/04/13 02:31:19;;;;;;;54.90;33.60;;;;;;;6.69;75.47;98991.02;102946;1258;98309;-73
2023/04/13 02:33:45;;;;;;;56.00;34.50;;;;;;;6.66;75.52;98989.02;102902;1257;138116;-72
2023/04/13 02:36:11;;;;;;;53.80;35.20;;;;;;;6.63;75.30;98992.04;102863;1257;97795;-72
2023/04/13 02:38:41;;;;;;;57.20;35.70;;;;;;;6.60;75.57;98988.69;102878;1256;138302;-73
2023/04/13 02:41:10;;;;;;;51.30;32.10;;;;;;;6.58;75.68;98988.79;103095;1256;107077;-72
2023/04/13 02:43:54;;;;;;;50.30;33.10;;;;;;;6.56;75.97;98994.54;103074;1256;97679;-72
2023/04/13 02:46:22;;;;;;;48.80;33.40;;;;;;;6.54;75.83;99002.55;103025;1256;108682;-72
2023/04/13 02:48:50;;;;;;;48.30;32.70;;;;;;;6.52;75.95;99004.70;102958;1258;97809;-72
2023/04/13 02:51:15;;;;;;;52.40;33.40;;;;;;;6.52;76.04;99009.22;102771;1256;138412;-72
2023/04/13 02:53:49;;;;;;;52.30;33.60;;;;;;;6.52;76.24;99010.94;103075;1258;106860;-72
2023/04/13 02:56:13;;;;;;;50.00;33.10;;;;;;;6.50;76.23;99005.46;102907;1260;138717;-72
2023/04/13 02:58:44;;;;;;;49.50;32.70;;;;;;;6.51;76.31;99010.98;102960;1258;107690;-71
2023/04/13 03:01:13;;;;;;;51.50;33.00;;;;;;;6.50;76.32;99011.17;102976;1260;97926;-71
2023/04/13 03:03:36;;;;;;;50.90;33.40;;;;;;;6.49;76.36;99015.20;102888;1258;138425;-71
2023/04/13 03:06:23;;;;;;;49.90;32.50;;;;;;;6.47;76.38;99019.06;102976;1258;106984;-72
2023/04/13 03:09:08;;;;;;;49.30;31.70;;;;;;;6.45;76.53;99026.88;103041;1256;138277;-72
2023/04/13 03:11:39;;;;;;;58.70;38.40;;;;;;;6.44;76.35;99034.67;103407;1257;107698;-72
2023/04/13 03:14:19;;;;;;;47.90;32.20;;;;;;;6.45;76.53;99036.38;103489;1259;137555;-72
2023/04/13 03:16:44;;;;;;;50.80;33.20;;;;;;;6.46;76.52;99040.66;104273;1256;111313;-72
2023/04/13 03:19:08;;;;;;;44.90;30.00;;;;;;;6.47;76.57;99043.92;103680;1256;106193;-73
2023/04/13 03:21:33;;;;;;;48.00;31.90;;;;;;;6.48;76.71;99044.23;103226;1255;137229;-73
2023/04/13 03:24:16;;;;;;;50.00;31.60;;;;;;;6.50;76.45;99050.05;103244;1257;106276;-72
2023/04/13 03:26:40;;;;;;;48.10;31.00;;;;;;;6.50;76.40;99054.88;103486;1256;138735;-73
2023/04/13 03:29:08;;;;;;;49.20;32.10;;;;;;;6.48;76.55;99057.36;103670;1256;112346;-72
2023/04/13 03:31:36;;;;;;;46.70;31.30;;;;;;;6.47;76.48;99054.98;103586;1256;107061;-73
2023/04/13 03:34:00;;;;;;;46.30;31.20;;;;;;;6.47;76.52;99054.11;103131;1257;137306;-72
2023/04/13 03:36:27;;;;;;;51.10;30.00;;;;;;;6.47;76.35;99051.52;103681;1255;108045;-72
2023/04/13 03:38:51;;;;;;;46.20;29.30;;;;;;;6.48;76.43;99049.92;102932;1259;138379;-72
2023/04/13 03:41:18;;;;;;;43.60;29.60;;;;;;;6.48;76.43;99051.65;102938;1256;109911;-73
2023/04/13 03:43:42;;;;;;;46.30;29.10;;;;;;;6.47;76.54;99056.19;102941;1256;108397;-73
2023/04/13 03:46:08;;;;;;;48.90;29.70;;;;;;;6.44;76.48;99060.08;102889;1255;138430;-73
2023/04/13 03:48:33;;;;;;;51.80;31.40;;;;;;;6.42;76.56;99061.52;102881;1258;108139;-72
2023/04/13 03:50:58;;;;;;;45.00;30.40;;;;;;;6.40;76.57;99068.14;102933;1259;138548;-72
2023/04/13 03:53:27;;;;;;;49.30;31.60;;;;;;;6.41;76.84;99070.89;103078;1260;111573;-72
2023/04/13 03:55:55;;;;;;;51.20;35.10;;;;;;;6.43;76.82;99072.73;102970;1260;107621;-72
2023/04/13 03:58:18;;;;;;;49.00;32.80;;;;;;;6.45;76.92;99074.54;102928;1256;138362;-72
2023/04/13 04:00:52;;;;;;;47.70;31.50;;;;;;;6.46;76.95;99076.59;103054;1256;108202;-73
2023/04/13 04:03:24;;;;;;;49.10;33.20;;;;;;;6.49;76.92;99081.34;102944;1256;138719;-71
2023/04/13 04:05:51;;;;;;;49.90;33.10;;;;;;;6.52;76.90;99094.33;103072;1256;110389;-71
2023/04/13 04:08:27;;;;;;;57.70;32.20;;;;;;;6.55;76.85;99096.48;103021;1258;138489;-72
2023/04/13 04:10:53;;;;;;;49.20;30.90;;;;;;;6.59;76.87;99101.36;103066;1260;97971;-72
2023/04/13 04:13:38;;;;;;;44.20;29.90;;;;;;;6.63;76.94;99100.35;103164;1256;107622;-70
2023/04/13 04:16:17;;;;;;;40.90;28.30;;;;;;;6.65;76.92;99101.52;102996;1258;138252;-70
2023/04/13 04:18:48;;;;;;;45.30;29.10;;;;;;;6.68;77.06;99106.07;103058;1255;111298;-70
2023/04/13 04:21:15;;;;;;;44.80;28.90;;;;;;;6.71;76.73;99105.46;102993;1257;138396;-70
2023/04/13 04:23:59;;;;;;;39.50;26.60;;;;;;;6.73;76.44;99102.94;103021;1257;97833;-70
2023/04/13 04:26:49;;;;;;;42.20;26.90;;;;;;;6.77;76.44;99106.60;102891;1256;140522;-70
2023/04/13 04:29:13;;;;;;;42.20;29.00;;;;;;;6.83;76.41;99107.10;102938;1256;97826;-72
2023/04/13 04:31:42;;;;;;;39.10;26.80;;;;;;;6.89;76.17;99109.83;103107;1259;111836;-71
2023/04/13 04:34:12;;;;;;;44.90;28.00;;;;;;;6.93;76.10;99111.39;102737;1257;138646;-72
2023/04/13 04:36:44;;;;;;;45.70;26.80;;;;;;;6.94;75.92;99107.70;102997;1257;98331;-72
2023/04/13 04:39:13;;;;;;;42.10;27.70;;;;;;;6.97;75.90;99108.66;102937;1257;138226;-72
2023/04/13 04:42:02;;;;;;;41.80;27.30;;;;;;;7.00;75.90;99110.79;103054;1260;97792;-72
2023/04/13 04:44:29;;;;;;;39.80;26.10;;;;;;;7.04;75.80;99115.33;104266;1256;138441;-70
2023/04/13 04:47:04;;;;;;;40.30;26.50;;;;;;;7.07;75.62;99110.04;103129;1259;107239;-72
2023/04/13 04:49:32;;;;;;;40.70;27.30;;;;;;;7.10;75.52;99106.30;103148;1256;97935;-71
2023/04/13 04:51:57;;;;;;;39.70;27.40;;;;;;;7.13;75.36;99102.36;102989;1256;138910;-70
2023/04/13 04:54:21;;;;;;;42.90;28.30;;;;;;;7.20;75.55;99093.31;103020;1261;97821;-71
2023/04/13 04:56:46;;;;;;;39.10;26.60;;;;;;;7.27;75.37;99092.17;102881;1256;138336;-71
2023/04/13 04:59:14;;;;;;;37.40;25.30;;;;;;;7.36;75.16;99094.09;102917;1256;106877;-71
2023/04/13 05:01:49;;;;;;;38.70;25.50;;;;;;;7.44;74.85;99095.73;102987;1260;97791;-72
2023/04/13 05:04:33;;;;;;;41.50;25.70;;;;;;;7.55;74.93;99096.13;103013;1256;110094;-73
2023/04/13 05:07:01;;;;;;;37.30;26.20;;;;;;;7.67;74.60;99095.85;103035;1258;97694;-72
2023/04/13 05:09:25;;;;;;;41.20;26.50;;;;;;;7.79;74.50;99093.13;103087;1256;138142;-73
2023/04/13 05:11:52;;;;;;;36.60;25.30;;;;;;;7.91;74.39;99091.77;102957;1255;107655;-73
2023/04/13 05:14:17;;;;;;;36.70;25.20;;;;;;;8.03;74.23;99094.23;102812;1259;138503;-72
2023/04/13 05:16:40;;;;;;;37.70;24.00;;;;;;;8.14;73.74;99093.45;102932;1256;107794;-71
2023/04/13 05:19:11;;;;;;;36.20;24.10;;;;;;;8.27;73.44;99094.69;100443;1258;97849;-73
2023/04/13 05:21:41;;;;;;;34.40;23.60;;;;;;;8.35;73.08;99094.19;102725;1257;138269;-73
2023/04/13 05:24:06;;;;;;;34.00;22.70;;;;;;;8.44;72.79;99096.56;102896;1255;98190;-73
2023/04/13 05:26:33;;;;;;;34.30;23.10;;;;;;;8.56;72.49;99097.30;103127;1256;139107;-73
2023/04/13 05:28:57;;;;;;;37.20;24.60;;;;;;;8.72;72.29;99093.52;103041;1255;107557;-73
2023/04/13 05:31:27;;;;;;;35.60;23.80;;;;;;;9.18;72.17;99090.24;102961;1256;97752;-79
2023/04/13 05:33:56;;;;;;;33.40;22.20;;;;;;;10.31;71.91;99089.95;102853;1256;138628;-76
2023/04/13 05:36:22;;;;;;;31.50;21.60;;;;;;;11.80;70.13;99084.91;102932;1258;97802;-67
2023/04/13 05:38:46;;;;;;;28.50;21.50;;;;;;;13.01;68.08;99085.06;103886;1256;138475;-63
2023/04/13 05:41:10;;;;;;;29.70;21.40;;;;;;;14.67;66.58;99083.61;103031;1256;108044;-65
2023/04/13 05:43:35;;;;;;;33.30;22.00;;;;;;;16.13;63.45;99074.23;103147;1256;98213;-64
2023/04/13 05:45:58;;;;;;;28.30;19.40;;;;;;;16.83;60.78;99073.27;103001;1260;137847;-65
2023/04/13 05:48:22;;;;;;;26.30;18.20;;;;;;;17.64;59.63;99065.70;103016;1261;97756;-72
2023/04/13 05:50:46;;;;;;;26.70;17.90;;;;;;;19.05;58.01;99053.43;102953;1255;138109;-75
2023/04/13 05:53:10;;;;;;;20.60;16.70;;;;;;;20.53;55.29;99045.83;103019;1256;107238;-74
2023/04/13 05:55:41;;;;;;;23.50;16.50;;;;;;;21.96;52.50;99044.41;103080;1256;97674;-74
2023/04/13 05:58:05;;;;;;;24.60;15.30;;;;;;;23.08;50.20;99039.14;103419;1256;138290;-76
2023/04/13 06:00:29;;;;;;;23.60;15.00;;;;;;;24.16;48.34;99033.77;103043;1258;97810;-74
2023/04/13 06:02:58;;;;;;;22.40;15.80;;;;;;;25.47;46.24;99029.64;102951;1260;138029;-75
2023/04/13 06:05:23;;;;;;;20.70;15.60;;;;;;;26.76;43.65;99024.02;103537;1256;107592;-75
2023/04/13 06:07:47;;;;;;;20.70;16.30;;;;;;;28.03;42.00;99022.16;103045;1256;98319;-74
2023/04/13 06:10:11;;;;;;;19.30;16.00;;;;;;;29.07;39.83;99013.77;102823;1256;137968;-74
2023/04/13 06:12:35;;;;;;;19.90;16.00;;;;;;;30.09;38.20;99011.95;103062;1256;97799;-73
2023/04/13 06:14:58;;;;;;;18.60;16.10;;;;;;;30.99;35.90;99006.42;102900;1256;139365;-75
2023/04/13 06:17:24;;;;;;;17.20;15.40;;;;;;;31.77;34.80;98998.48;102981;1256;107727;-75
2023/04/13 06:19:48;;;;;;;18.40;14.20;;;;;;;32.42;33.70;98992.25;102996;1255;97786;-75
2023/04/13 06:22:11;;;;;;;16.30;12.90;;;;;;;33.11;32.61;98992.95;102965;1256;137846;-74
2023/04/13 06:24:36;;;;;;;15.20;13.50;;;;;;;33.74;31.50;98989.75;103031;1260;97872;-76
2023/04/13 06:27:00;;;;;;;28.70;13.30;;;;;;;34.22;30.62;98992.98;102929;1260;137957;-76
2023/04/13 06:29:24;;;;;;;14.30;11.70;;;;;;;34.59;29.48;99000.16;103096;1256;100308;-74
2023/04/13 06:31:54;;;;;;;11.80;9.60;;;;;;;34.85;28.60;99002.77;103074;1256;97690;-75
2023/04/13 06:34:19;;;;;;;11.00;9.70;;;;;;;35.15;27.94;99005.41;102861;1258;137764;-75
2023/04/13 06:36:42;;;;;;;10.60;9.10;;;;;;;35.60;27.10;99001.02;103066;1260;97821;-74
2023/04/13 06:39:08;;;;;;;;;;;;;;;36.08;26.30;98992.38;102935;1260;137877;-73
2023/04/13 06:41:32;;;;;;;9.50;8.60;;;;;;;36.49;25.81;98989.77;102854;1257;99070;-75
2023/04/13 06:44:09;;;;;;;11.60;10.00;;;;;;;36.87;25.16;98989.50;103002;1256;230305;-75
2023/04/13 06:46:43;;;;;;;12.00;9.50;;;;;;;37.22;24.77;98991.17;103038;1260;99973;-74
2023/04/13 06:49:08;;;;;;;13.50;9.80;;;;;;;37.51;24.28;98988.59;103063;1256;97821;-73
2023/04/13 06:51:32;;;;;;;12.60;11.00;;;;;;;37.83;23.54;98992.01;102914;1255;137728;-73
2023/04/13 06:53:56;;;;;;;14.90;10.30;;;;;;;38.08;23.10;98995.80;102972;1257;98833;-79
2023/04/13 06:56:20;;;;;;;14.90;11.30;;;;;;;38.06;22.63;98996.04;102981;1260;138052;-82
2023/04/13 06:58:44;;;;;;;16.30;10.70;;;;;;;38.12;22.06;99003.34;103011;1257;100295;-82
2023/04/13 07:01:07;;;;;;;12.70;9.80;;;;;;;38.25;21.41;99002.45;102948;1261;97815;-83
2023/04/13 07:03:32;;;;;;;14.10;9.80;;;;;;;38.45;21.41;98998.52;102902;1256;137677;-83
2023/04/13 07:05:56;;;;;;;11.00;9.80;;;;;;;38.76;21.25;99000.99;102978;1259;99665;-83
2023/04/13 07:08:20;;;;;;;11.00;9.90;;;;;;;39.01;20.72;99001.70;102984;1256;137829;-81
2023/04/13 07:10:44;;;;;;;12.60;9.30;;;;;;;39.22;20.54;99003.73;103047;1255;100315;-82
2023/04/13 07:13:18;;;;;;;10.80;9.70;;;;;;;39.28;20.33;99004.18;103030;1257;97802;-80
2023/04/13 07:15:42;;;;;;;13.30;10.00;;;;;;;39.22;19.97;99006.46;102890;1256;138177;-84
2023/04/13 07:18:06;;;;;;;11.90;9.80;;;;;;;39.10;19.59;99006.05;102999;1260;99676;-84
2023/04/13 07:20:30;;;;;;;18.50;9.80;;;;;;;38.82;19.41;99007.80;103023;1256;137998;-82
2023/04/13 07:22:54;;;;;;;12.90;10.50;;;;;;;38.84;19.43;99011.14;103015;1259;100297;-76
2023/04/13 07:25:17;;;;;;;11.70;10.50;;;;;;;39.09;19.22;99011.19;103001;1258;97797;-77
2023/04/13 07:27:41;;;;;;;12.50;11.00;;;;;;;39.13;18.86;99016.61;102913;1260;139022;-75
2023/04/13 07:30:07;;;;;;;15.40;10.80;;;;;;;38.66;18.23;99014.27;102988;1262;100579;-75
2023/04/13 07:32:35;;;;;;;13.90;11.30;;;;;;;38.00;18.79;99009.44;102897;1260;138106;-75
2023/04/13 07:35:00;;;;;;;21.20;12.20;;;;;;;37.93;18.84;99006.38;103095;1256;100881;-76
2023/04/13 07:37:24;;;;;;;19.60;12.80;;;;;;;38.10;18.30;99004.20;103048;1260;98015;-75
2023/04/13 07:39:48;;;;;;;17.30;11.60;;;;;;;38.11;18.45;99004.20;102904;1256;138188;-76
2023/04/13 07:42:12;;;;;;;17.70;11.90;;;;;;;38.11;18.62;99009.43;102942;1258;99962;-76
2023/04/13 07:44:40;;;;;;;14.90;11.20;;;;;;;38.16;18.68;99016.35;102937;1257;138075;-76
2023/04/13 07:47:05;;;;;;;14.60;11.70;;;;;;;38.22;18.72;99015.59;102881;1257;100128;-76
2023/04/13 07:49:29;;;;;;;12.60;10.60;;;;;;;38.41;18.70;99016.42;103017;1257;97704;-75
2023/04/13 07:51:54;;;;;;;14.60;11.70;;;;;;;38.45;18.23;99014.54;102970;1259;139602;-77
2023/04/13 07:54:18;;;;;;;18.90;12.80;;;;;;;38.30;17.76;99018.84;103100;1256;100568;-76
2023/04/13 07:56:41;;;;;;;17.40;12.10;;;;;;;38.10;17.21;99024.41;102948;1261;138268;-76
2023/04/13 07:59:06;;;;;;;17.40;11.50;;;;;;;37.70;17.77;99022.11;103074;1256;100393;-76
2023/04/13 08:01:30;;;;;;;13.80;11.60;;;;;;;37.28;17.25;99017.66;103043;1256;97807;-77
2023/04/13 08:03:54;;;;;;;14.50;11.40;;;;;;;36.43;17.33;99013.52;102997;1256;138486;-77
2023/04/13 08:06:19;;;;;;;13.70;12.20;;;;;;;35.70;17.54;99015.59;103037;1256;101258;-76
2023/04/13 08:08:43;;;;;;;16.80;12.40;;;;;;;34.86;17.83;99014.88;104349;1256;138236;-75
2023/04/13 08:11:07;;;;;;;20.70;11.90;;;;;;;34.61;18.42;99016.83;104417;1257;98978;-73
2023/04/13 08:13:31;;;;;;;16.20;10.40;;;;;;;34.69;18.79;99014.88;104175;1260;97901;-74
2023/04/13 08:15:56;;;;;;;14.00;10.80;;;;;;;35.22;18.97;99008.73;102895;1256;137929;-75
2023/04/13 08:18:19;;;;;;;17.00;11.70;;;;;;;35.86;18.45;99007.12;102998;1260;98993;-74
2023/04/13 08:20:44;;;;;;;14.40;10.60;;;;;;;36.07;17.53;99007.95;102926;1260;137989;-74
2023/04/13 08:23:08;;;;;;;14.60;11.00;;;;;;;35.69;17.40;99009.83;103032;1259;100346;-64
2023/04/13 08:25:39;;;;;;;11.20;9.90;;;;;;;35.10;17.94;99010.35;102954;1257;97843;-64
2023/04/13 08:28:03;;;;;;;10.60;9.50;;;;;;;34.78;18.05;99005.27;103152;1256;137875;-73
2023/04/13 08:30:27;;;;;;;14.40;10.40;;;;;;;34.30;18.13;99002.89;103015;1256;99403;-73
2023/04/13 08:32:55;;;;;;;13.80;10.10;;;;;;;34.07;18.93;98994.32;102899;1260;139052;-75
2023/04/13 08:35:19;;;;;;;11.00;9.90;;;;;;;34.23;18.60;99001.58;103028;1260;100556;-74
2023/04/13 08:37:43;;;;;;;11.80;10.00;;;;;;;33.91;17.98;99007.99;103089;1258;97775;-75
2023/04/13 08:40:10;;;;;;;14.20;9.10;;;;;;;33.23;18.43;99003.39;102933;1256;137998;-74
2023/04/13 08:42:35;;;;;;;11.80;10.60;;;;;;;32.82;18.73;99003.45;103347;1256;100074;-74
2023/04/13 08:45:00;;;;;;;10.80;9.70;;;;;;;32.46;18.88;99004.04;102843;1257;138294;-74
2023/04/13 08:47:25;;;;;;;15.60;10.10;;;;;;;31.95;19.34;99000.64;103058;1255;107110;-73
2023/04/13 08:49:50;;;;;;;14.00;11.70;;;;;;;31.92;19.83;98999.83;103065;1256;97813;-75
2023/04/13 08:52:20;;;;;;;13.50;11.60;;;;;;;31.81;19.52;99004.16;104396;1258;137898;-75
2023/04/13 08:54:47;;;;;;;15.30;11.10;;;;;;;31.56;19.76;99003.89;103201;1256;107449;-72
2023/04/13 08:57:16;;;;;;;13.60;10.70;;;;;;;31.49;20.28;99007.13;102893;1259;137969;-75
2023/04/13 08:59:43;;;;;;;11.50;10.30;;;;;;;31.14;19.72;99015.95;103052;1260;107632;-73
2023/04/13 09:02:07;;;;;;;12.10;10.30;;;;;;;30.44;20.26;99011.10;103017;1256;97875;-75
2023/04/13 09:04:37;;;;;;;12.90;9.60;;;;;;;29.93;20.70;99007.05;103027;1261;110385;-75
2023/04/13 09:07:03;;;;;;;13.60;9.60;;;;;;;29.79;21.23;99007.21;103702;1256;107221;-74
2023/04/13 09:09:26;;;;;;;;;;;;;;;29.61;21.28;99011.51;102884;1256;137838;-74
2023/04/13 09:11:50;;;;;;;13.30;10.70;;;;;;;29.24;20.64;99014.30;103079;1256;107759;-72
2023/04/13 09:14:18;;;;;;;13.30;10.30;;;;;;;28.50;21.28;99020.34;102899;1256;138266;-73
2023/04/13 09:16:42;;;;;;;16.40;11.30;;;;;;;28.05;21.84;99020.85;102976;1256;110674;-80
2023/04/13 09:19:29;;;;;;;13.80;10.00;;;;;;;27.88;22.20;99012.57;102894;1260;107541;-74
2023/04/13 09:21:53;;;;;;;12.70;9.30;;;;;;;28.24;23.10;99008.39;103272;1255;138514;-75
2023/04/13 09:24:17;;;;;;;14.40;9.80;;;;;;;29.05;23.16;99007.90;103013;1260;108043;-75
2023/04/13 09:26:41;;;;;;;13.10;8.40;;;;;;;29.88;22.87;99002.02;102895;1260;138462;-72
2023/04/13 09:29:05;;;;;;;16.00;10.40;;;;;;;30.40;21.93;99007.29;103089;1261;110455;-74
2023/04/13 09:31:31;;;;;;;15.70;10.20;;;;;;;30.24;21.12;99004.72;104457;1255;106927;-74
2023/04/13 09:33:55;;;;;;;12.20;10.20;;;;;;;30.12;21.58;99000.73;103509;1256;138333;-74
2023/04/13 09:36:21;;;;;;;12.00;9.60;;;;;;;30.44;21.71;99002.86;103039;1256;106861;-73
2023/04/13 09:38:50;;;;;;;13.70;10.30;;;;;;;30.75;21.85;99002.20;102974;1260;138465;-73
2023/04/13 09:41:13;;;;;;;12.20;10.40;;;;;;;31.22;21.77;99000.61;103036;1260;110151;-72
2023/04/13 09:43:37;;;;;;;16.00;9.60;;;;;;;31.41;21.20;98996.54;103017;1256;107671;-73
2023/04/13 09:46:01;;;;;;;12.80;10.30;;;;;;;31.49;20.81;99000.61;102972;1256;138193;-72
2023/04/13 09:48:25;;;;;;;12.60;9.90;;;;;;;31.58;20.80;98996.67;103038;1259;107046;-79
2023/04/13 09:50:58;;;;;;;11.40;10.10;;;;;;;31.75;20.79;98997.89;102880;1256;137757;-80
2023/04/13 09:53:22;;;;;;;14.40;9.50;;;;;;;31.84;20.70;98997.30;103031;1260;103782;-78
2023/04/13 09:55:55;;;;;;;12.50;9.20;;;;;;;31.83;21.12;98996.20;103085;1258;108134;-79
2023/04/13 09:58:19;;;;;;;13.20;9.40;;;;;;;31.90;20.67;98999.21;102970;1258;137595;-78
2023/04/13 10:00:45;;;;;;;11.70;8.90;;;;;;;31.76;20.70;98999.20;103072;1256;99004;-82
2023/04/13 10:03:10;;;;;;;;;;;;;;;31.55;20.88;98994.82;102991;1260;139479;-79
2023/04/13 10:05:35;;;;;;;18.10;9.30;;;;;;;31.07;20.15;99005.87;103459;1256;111830;-81
2023/04/13 10:08:17;;;;;;;17.70;9.30;;;;;;;30.21;20.14;99005.90;102896;1261;137920;-83
2023/04/13 10:10:59;;;;;;;12.30;10.00;;;;;;;29.16;20.33;99012.09;103072;1258;97898;-81
2023/04/13 10:13:29;;;;;;;11.90;10.40;;;;;;;28.22;21.20;99015.99;103080;1256;107943;-83
2023/04/13 10:16:11;;;;;;;12.00;10.40;;;;;;;27.72;22.13;99013.50;103008;1256;138062;-81
2023/04/13 10:18:46;;;;;;;9.70;8.70;;;;;;;27.51;22.16;99014.96;103071;1256;111499;-79
2023/04/13 10:21:11;;;;;;;9.60;8.30;;;;;;;27.03;22.21;99022.80;102905;1261;137760;-79
2023/04/13 10:23:37;;;;;;;11.70;7.80;;;;;;;26.47;22.73;99022.83;103137;1257;97914;-79
2023/04/13 10:26:02;;;;;;;13.00;8.20;;;;;;;26.41;22.90;99020.25;103078;1261;108452;-79
2023/04/13 10:28:26;;;;;;;10.60;8.20;;;;;;;26.23;23.37;99024.04;102923;1261;137961;-78
2023/04/13 10:30:50;;;;;;;10.40;8.20;;;;;;;26.11;23.35;99022.83;102928;1256;111185;-79
2023/04/13 10:33:14;;;;;;;10.60;8.40;;;;;;;26.08;23.36;99031.16;102772;1256;138023;-78
2023/04/13 10:35:37;;;;;;;9.00;6.90;;;;;;;25.98;23.66;99026.25;103095;1256;97691;-78
2023/04/13 10:38:07;;;;;;;9.40;6.30;;;;;;;26.05;23.20;99026.35;102971;1256;107982;-79
2023/04/13 10:40:42;;;;;;;9.20;6.70;;;;;;;25.87;22.56;99024.48;102984;1261;97794;-80
2023/04/13 10:43:05;;;;;;;10.30;6.40;;;;;;;25.45;23.13;99020.79;103013;1256;110864;-77
2023/04/13 10:45:34;;;;;;;11.10;6.60;;;;;;;25.57;23.20;99019.27;102891;1259;137874;-79
2023/04/13 10:47:58;;;;;;;11.50;8.90;;;;;;;25.51;23.78;99019.33;103089;1259;97711;-72
2023/04/13 10:50:23;;;;;;;10.70;8.50;;;;;;;25.57;24.08;99025.44;102846;1261;138400;-71
2023/04/13 10:53:00;;;;;;;11.00;8.40;;;;;;;25.51;23.89;99026.70;102981;1260;98304;-71
2023/04/13 10:55:24;;;;;;;9.70;7.60;;;;;;;25.06;24.21;99022.16;103070;1256;111894;-73
2023/04/13 10:57:48;;;;;;;11.00;7.70;;;;;;;24.70;24.10;99023.36;102950;1256;137612;-72
2023/04/13 11:00:20;;;;;;;9.60;7.00;;;;;;;24.66;24.58;99020.03;103056;1256;97851;-82
2023/04/13 11:02:44;;;;;;;11.30;7.20;;;;;;;24.94;24.68;99020.61;102857;1256;137664;-76
2023/04/13 11:05:14;;;;;;;11.60;7.40;;;;;;;25.18;24.78;99012.92;102969;1261;98274;-84
2023/04/13 11:07:40;;;;;;;9.10;6.70;;;;;;;25.42;24.23;99012.29;102994;1256;111546;-81
2023/04/13 11:10:05;;;;;;;11.20;7.70;;;;;;;25.58;24.27;99015.34;102955;1260;137687;-83
2023/04/13 11:12:29;;;;;;;9.10;8.00;;;;;;;25.70;23.60;99010.97;103072;1256;97815;-83
2023/04/13 11:14:53;;;;;;;10.00;8.00;;;;;;;25.49;23.24;99013.52;102860;1256;137481;-82